Startpagina
METAR-TAF:

METAR-TAF

Vliegvelden :

Internationale luchthaven Milano Malpensa

Milaan, Italië

breedte: 45-37N, lengte: 008-44E, hoogte: 234 m

Actueel weer

Dit bericht is 32 minuten geleden gemaakt, om 01:20 UTC
Wind 4 kt uit het noorden
Temperatuur -3°C
Vochtigheid 93%
Druk 1028 hPa
Zicht: 6000 m

METAR: LIMC 240120Z 36004KT 6000 NSC M03/M04 Q1028 NOSIG

Tijdstip: 02:52 (01:52 UTC)

Verwachting

Dit bericht is 2 uur en het 52 minuten geleden gemaakt, om 23:00 UTC
Verwachting geldig van 24 om 00 UTC tot 25 om 06 UTC
Wind 5 kt uit variabele richting
Zicht 10 km of meer
Verspreide wolken op 3000 ft
Verspreide wolken op 6000 ft
Tijdelijke
van 24 om 03 UTC tot 24 om 07 UTC
Zicht: 3000 m
mistbanken

TAF: LIMC 232300Z 2400/2506 VRB05KT 9999 SCT030 SCT060 TEMPO 2403/2407 3000 BCFG

Waarnemingen en weersverwachtingen van meer dan 4000 vliegvelden (METAR en TAF).

De beschikbare stations zijn de gele en rode punten op de kaart.

Ga met uw muis naar het station om de naam te zien.

Klik dan om waarnemingen en weersverwachtingen te zien.

kaart wijzigen: klik op de groene knoppen met een zwart kruis om in te zoomen, op de groene knop met een streepje om uit te zoomen of op de groene pijlen voor aangrenzende kaarten.


METAR-TAF: